Cleveland, OH

12:06 PM EDT on July 29, 2015 (GMT -0400)
Buckeye Woodhill | | Change Station
CLOSE
Current Station
Personal Weather Station
Location: Cleveland, OH
Elevation: 776 ft
Nearby Weather Stations

Elev 776 ft 41.48 °N, 81.62 °W | Updated 1 minute ago

Mostly Cloudy
Mostly Cloudy
89.4 °F
Feels Like 91 °F
N
2.0
Wind Variable Wind from SSW
Gusts 4.0 mph

Today
High -- | Low -- °F
--% Chance of Precip.
Yesterday
High -- | Low -- °F
Precip. -- in
6:18 AM 8:47 PM
Waxing Gibbous, 96% visible
Pressure 29.95 in
Visibility 8.0 miles
Clouds Mostly Cloudy 25000 ft
Heat Index 91 °F
Dew Point 64 °F
Humidity 43%
Rainfall 0.00 in
Snow Depth Not available.
UV 5 out of 12
Pollen 6.80 out of 12
Air Quality Not available.
Flu Activity Not available.
METAR KBKL 291553Z 32004KT 8SM BKN250 29/21 A2996 RMK AO2 SLP140 T02890211

More Conditions Fewer Conditions

Pressure 29.95 in
Visibility 8.0 miles
Clouds Mostly Cloudy 25000 ft
Heat Index 91 °F
Dew Point 64 °F
Humidity 43%
Rainfall 0.00 in
Snow Depth Not available.
UV 5 out of 12
Pollen 6.80 out of 12
Air Quality Not available.
Flu Activity Not available.
METAR KBKL 291553Z 32004KT 8SM BKN250 29/21 A2996 RMK AO2 SLP140 T02890211

More Conditions Fewer Conditions

10-Day Weather Forecast

×

Almanac

Astronomy

Jul. 29, 2015 Rise Set
Actual Time
Civil Twilight
Nautical Twilight
Astronomical Twilight
Moon
Length of Visible Light
Length of Day
Tomorrow will be .
, % of the Moon is Illuminated

Today's Extremes

State Highs State Lows

Community

WunderPhotos

Upload Photos

1,842,121 photos uploaded!

WunderBlogs® & News

Nearby

Air Quality

  Air Quality AQ Index Pollutant
Not available.

Snow Depth

Station Depth Elevation

Earthquake Activity

City Distance Mag. Time & Date
Minimum magnitude displayed is 2.5.

Coastal Water Temperatures

Place Temperature

Stations

Nearby Weather Stations

Station Location Temp. Windchill Dew Point Humidity Wind Precip. Elev Updated Type